INFORMACIÓN METAR y TAF
METAR FOR LEXJ
ADDS - METARS form results

(0236 UTC 22 February 2019)
Data provider http://aviationweather.gov/metar/data/
 
METAR text: LEXJ 220230Z AUTO 00000KT 9999 NCD 07/05 Q1028
Conditions at: LEXJ (SANTANDER/PARAYA, ES) observed 0230 UTC 22 February 2019
Temperature: 7.0°C (45°F)
Dewpoint: 5.0°C (41°F) [RH = 87%]
Pressure (altimeter): 30.35 inches Hg (1028.0 mb)
Winds: calm
Visibility: 6 or more miles (10+ km)
Ceiling: at least 12,000 feet AGL
Clouds: sky clear below 12,000 feet AGL
Weather: no significant weather observed at this time

METAR text: LEXJ 220200Z AUTO 14001KT 9999 NCD 09/07 Q1028
Conditions at: LEXJ (SANTANDER/PARAYA, ES) observed 0200 UTC 22 February 2019
Temperature: 9.0°C (48°F)
Dewpoint: 7.0°C (45°F) [RH = 87%]
Pressure (altimeter): 30.35 inches Hg (1028.0 mb)
Winds: from the SE (140 degrees) at 1 MPH (1 knots; 0.5 m/s)
Visibility: 6 or more miles (10+ km)
Ceiling: at least 12,000 feet AGL
Clouds: sky clear below 12,000 feet AGL
Weather: no significant weather observed at this time

Forecast for: LEXJ (SANTANDER/PARAYA, ES)
Text: TAF LEXJ 220200Z 2203/2303 19009KT CAVOK TX21/2215Z TN05/2206Z
Forecast period: 0300 UTC 22 February 2019 to 0300 UTC 23 February 2019
Forecast type: FROM: standard forecast or significant change
Winds: from the S (190 degrees) at 10 MPH (9 knots; 4.6 m/s)
Visibility: 6 or more miles 10+ km)
Ceiling: unknown
Clouds: missing
Weather: no significant weather forecast for this period
Text: PROB30
Forecast period: 0300 to 0800 UTC 22 February 2019
Forecast type: TEMPORARY: The following changes expected for less than half the time period
Visibility: 1.86 miles (2.99 km)
Ceiling: unknown
Clouds: missing
Weather: BR  (mist)
Text: TEMPO 2203/2208 3000 BR
Forecast period: 1200 to 1800 UTC 22 February 2019
Forecast type: TEMPORARY: The following changes expected for less than half the time period
Winds: from the ENE (70 degrees) at 12 MPH (10 knots; 5.1 m/s)
Visibility: missing
Ceiling: unknown
Clouds: missing
Weather: no significant weather forecast for this period

 MAPA DE AEROPUERTO

 INFORMACIÓN DE PISTA
Pista 11 Longitud 7612 ft Ancho 148 ft
Elevación 11 ft Umbral desplazado 0 ft Rumbo de pista 110
Pista 29 Longitud 7612 ft Ancho 148 ft
Elevación 12 ft Umbral desplazado 0 ft Rumbo de pista 290

 FRECUANCIAS DEL AEROPUERTO
Tipo APP Nombre APP Frecuencia 118.375 MHZ
Tipo GND Nombre GND Frecuencia 121.7 MHZ
Tipo TWR Nombre TWR Frecuencia 118.1 MHZ

 RADIO AYUDAS DEL AEROPUERTO
Tipo NDB Nombre Santander Frecuencia 416 KHZ
Tipo VOR-DME Nombre Santander Frecuencia 115300 KHZ



Powered by Virtual Airlines Manager [v2.6.2]